x

Saxon Harbor, Wi (sxhw3) Weather Station

3:40am - Fri 22nd May 2015 All times are CDT. -5 hours from GMT.

  • Wind
    5mph, 6mph gusts
  • Air Temp 36°f
  • Sea Pressure 1020mb
  • Saxon Harbor, Wi
  • Saxon Harbor, Wi

More Historic Weather Station data

Upgrade to MSW Pro to gain access to the past 30 days of data for over 8000 Wavebouys and Weather Stations around the globe.

Join Pro

Comparision Forecast

View Surf forecast
   
Fri 05/22 3:40am 5 6 mph 1020mb 36f
3:30am 3 5 mph 1020mb 36f
3:20am 3 5 mph 1019.6mb 36f
3:10am 2 3 mph 1019.6mb 36f
3:00am 2 6 mph 1019.6mb 36f
2:40am 2 6 mph 1019.3mb 37f
2:30am 3 5 mph 1019.3mb 37f
2:20am 2 5 mph 1019.3mb 37f
2:10am 3 5 mph 1019.3mb 37f
2:00am 3 5 mph 1019.3mb 38f
1:40am 2 3 mph 1019mb 38f
1:30am  -  3 mph 1019mb 38f
1:20am 2 5 mph 1019mb 38f
1:10am 3 5 mph 1019mb 39f
1:00am  -  mph 1019mb 39f
12:40am  -  5 mph 1018.6mb 40f
12:30am  -  3 mph 1018.6mb 40f
12:20am 2 3 mph 1018.6mb 41f
12:10am 2 3 mph 1018.3mb 41f
12:00am 2 5 mph 1018.3mb 41f
Thu 05/21 11:40pm 3 5 mph 1018.3mb 42f
11:30pm 3 5 mph 1017.9mb 42f
11:20pm 3 6 mph 1017.9mb 43f
11:10pm 5 6 mph 1017.9mb 43f
11:00pm 3 5 mph 1017.9mb 43f
10:40pm 3 5 mph 1017.6mb 44f
10:30pm 3 5 mph 1017.6mb 45f
10:20pm 3 5 mph 1017.3mb 46f
10:10pm 3 6 mph 1017.3mb 46f
10:00pm 5 6 mph 1017.3mb 47f
9:40pm 3
mph
1016.9mb 48f
9:30pm 2 3 mph 1016.9mb 48f
9:20pm  -  2 mph 1016.9mb 49f
9:10pm  -  mph 1016.6mb 50f
9:00pm  -  mph 1016.6mb 50f
8:40pm  -  mph 1016.3mb 52f
8:30pm  -  mph 1016.6mb 53f
8:20pm  -  mph 1016.6mb 54f
8:10pm  -  mph 1016.6mb 55f
8:00pm  -  mph 1016.3mb 58f
7:40pm  -  mph 1016.3mb 61f
7:30pm  -  mph 1016.3mb 61f
7:20pm  -  mph 1016.3mb 62f
7:10pm  -  mph 1015.9mb 61f
7:00pm  -  mph 1015.9mb 59f
6:40pm  -  mph 1016.3mb 59f
6:30pm  -  mph 1016.3mb 59f
6:20pm  -  mph 1016.3mb 58f
6:10pm  -  mph 1016.3mb 59f
6:00pm  -  mph 1016.3mb 56f
5:40pm 3 5 mph 1016.3mb 58f
5:30pm 2 3 mph 1016.6mb 58f
5:20pm  -  mph 1016.6mb 56f
5:10pm  -  mph 1016.6mb 55f
5:00pm  -  mph 1016.6mb 56f
4:40pm  -  mph 1016.6mb 55f
4:30pm  -  mph 1016.6mb 54f
4:20pm  -  mph 1016.6mb 55f
4:10pm  -  mph 1016.6mb 55f
4:00pm  -  mph 1016.6mb 55f
3:40pm  -  mph 1016.6mb 53f
3:30pm  -  mph 1016.9mb 52f
3:20pm  -  mph 1016.9mb 53f
3:10pm  -  mph 1016.9mb 52f
3:00pm  -  mph 1016.9mb 52f
2:40pm  -  mph 1016.9mb 49f
2:30pm  -  mph 1016.9mb 49f
2:20pm  -  mph 1016.9mb 48f
2:10pm  -  mph 1016.9mb 48f
2:00pm  -  mph 1016.9mb 47f
1:40pm  -  mph 1016.9mb 47f
1:30pm  -  mph 1016.9mb 46f
1:20pm  -  mph 1016.9mb 46f
1:10pm  -  mph 1016.9mb 46f
1:00pm  -  mph 1017.3mb 46f
12:40pm  -  mph 1017.3mb 46f
12:30pm  -  mph 1017.3mb 45f
12:20pm 2 6 mph 1017.3mb 45f
12:10pm 5 6 mph 1017.3mb 45f
12:00pm  -  5 mph 1017.3mb 45f
11:40am  -  5 mph 1016.9mb 44f
11:30am 3 6 mph 1016.9mb 44f
11:20am 5
mph
1016.9mb 44f
11:10am  -  5 mph 1016.6mb 44f
11:00am 3 5 mph 1016.6mb 44f
10:40am  -  mph 1016.6mb 45f
10:30am  -  5 mph 1016.3mb 46f
10:20am 2 7 mph 1016.3mb 45f
10:10am 7 9 mph 1016.3mb 45f
10:00am 8 11 mph 1015.9mb 45f
9:40am 9 11 mph 1015.9mb 45f
9:30am 9 11 mph 1015.9mb 45f
9:20am 9 13 mph 1015.6mb 46f
9:10am 11 14 mph 1015.6mb 46f
9:00am 10 14 mph 1015.2mb 46f
8:40am 13 16 mph 1014.9mb 54f
8:30am 7 10 mph 1014.6mb 55f
8:20am 7 11 mph 1014.6mb 57f
8:10am 5 9 mph 1014.6mb 56f
8:00am 3 10 mph 1014.6mb 56f
7:40am 8 11 mph 1014.6mb 55f
7:30am 8 13 mph 1014.2mb 55f
7:20am 7 11 mph 1014.2mb 55f
7:10am 7 11 mph 1014.2mb 55f
6:40am 6 8 mph 1013.9mb 55f
6:30am 2 8 mph 1013.9mb 54f
6:20am 5 11 mph 1013.9mb 54f
6:10am 7 16 mph 1013.9mb 53f
6:00am 8 11 mph 1013.5mb 53f
5:40am 13 17 mph 1012.9mb 53f
5:30am 10 16 mph 1012.9mb 52f
5:20am 10 15 mph 1013.2mb 53f
5:10am 11 16 mph 1013.2mb 52f
5:00am 10 17 mph 1013.2mb 52f
4:40am 8 14 mph 1013.5mb 52f
4:30am 9 14 mph 1013.5mb 52f
4:20am 10 15 mph 1013.5mb 52f
4:10am 10 14 mph 1013.5mb 52f
4:00am 9 13 mph 1013.5mb 51f
3:50am 8 15 mph 1013.9mb 51f
3:40am 10 14 mph 1013.9mb 51f
3:30am 9 14 mph 1013.9mb 51f
3:20am 8 14 mph 1013.9mb 51f
3:10am 9 14 mph 1013.9mb 51f
3:00am 8 15 mph 1013.9mb 52f
2:50am 9 16 mph 1014.2mb 52f
2:40am 10 17 mph 1014.2mb 52f
2:30am 11 18 mph 1014.2mb 52f
2:20am 13 18 mph 1014.6mb 52f
2:10am 13 16 mph 1014.6mb 52f
2:00am 10 15 mph 1014.6mb 52f
1:50am 11 17 mph 1014.6mb 53f
1:40am 10 16 mph 1014.9mb 53f
1:30am 10 16 mph 1014.9mb 53f
1:20am 11 16 mph 1015.2mb 53f
1:10am 11 17 mph 1015.2mb 53f
1:00am 10 16 mph 1015.2mb 53f
12:50am 8 13 mph 1015.2mb 53f
12:40am 9 14 mph 1015.6mb 53f
12:30am 8 14 mph 1015.6mb 53f
12:20am 9 13 mph 1015.6mb 53f
12:10am 8 14 mph 1015.6mb 53f
12:00am 8 13 mph 1015.6mb 53f
Wed 05/20 11:50pm 7 15 mph 1015.6mb 53f
11:40pm 9 13 mph 1015.6mb 54f
11:30pm 7 15 mph 1015.9mb 54f
11:20pm 7 17 mph 1015.9mb 54f
11:10pm 8 13 mph 1015.9mb 54f
11:00pm 8 11 mph 1015.9mb 54f
10:50pm 8 14 mph 1015.9mb 54f
10:40pm 8 11 mph 1015.9mb 54f
10:30pm 7 10 mph 1016.3mb 54f
10:20pm 6 10 mph 1016.3mb 53f
10:10pm 5 10 mph 1016.3mb 54f
10:00pm 6 9 mph 1016.3mb 51f
9:50pm 5 7 mph 1016.3mb 50f
9:40pm 3 7 mph 1016.3mb 51f
9:30pm 3 6 mph 1016.3mb 49f
9:20pm  -  5 mph 1016.3mb 49f
9:10pm  -  5 mph 1016.3mb 50f
9:00pm  -  6 mph 1016.3mb 51f
8:50pm  -  3 mph 1016.3mb 51f
8:40pm  -  3 mph 1016.3mb 53f
8:30pm 1 5 mph 1016.3mb 54f
8:20pm 2 5 mph 1016.3mb 55f
8:10pm 3 6 mph 1016.6mb 58f
8:00pm 5 8 mph 1016.6mb 60f
7:50pm 5 9 mph 1016.6mb 62f
7:40pm 7 11 mph 1016.6mb 62f
7:30pm  -  7 mph 1016.9mb 63f
7:20pm 3 10 mph 1016.9mb 63f
7:10pm 7 11 mph 1016.9mb 63f
7:00pm 7 11 mph 1016.9mb 63f
6:50pm 8 14 mph 1016.9mb 63f
6:40pm 9 14 mph 1017.3mb 63f
6:30pm 10 13 mph 1017.3mb 64f
6:20pm  -  3 mph 1017.6mb 62f
6:10pm  -  mph 1017.9mb 64f
6:00pm  -  mph 1017.9mb 60f
5:50pm  -  mph 1018.3mb 56f
5:40pm  -  3 mph 1018.3mb 54f
5:30pm  -  mph 1018.3mb 55f
5:20pm  -  3 mph 1018.3mb 55f
5:10pm 2 3 mph 1018.6mb 55f
5:00pm  -  mph 1018.6mb 58f
4:50pm  -  2 mph 1019mb 57f
4:40pm 2 3 mph 1019.3mb 57f
4:30pm 3
mph
1019.3mb 56f
4:20pm  -  2 mph 1019.3mb 57f
4:10pm  -  mph 1019.3mb 56f
4:00pm  -  mph 1019.6mb 57f
3:50pm  -  mph 1019.6mb 55f
3:40pm  -  mph 1019.6mb 55f
3:30pm  -  mph 1020mb 54f
3:20pm  -  mph 1020mb 55f
3:10pm  -  3 mph 1020mb 55f
3:00pm 3
mph
1020.3mb 54f
2:50pm 3 5 mph 1020.3mb 54f
2:40pm 3 7 mph 1020.3mb 54f
2:30pm 6 7 mph 1020.7mb 54f
2:20pm 6 8 mph 1020.7mb 53f
2:10pm 7 9 mph 1020.7mb 52f
2:00pm 8
mph
1021mb 54f
1:50pm 6 9 mph 1021mb 53f
1:40pm 9
mph
1021mb 53f
1:30pm 7 8 mph 1021.3mb 53f
1:20pm 6
mph
1021.7mb 53f
1:10pm 6
mph
1021.3mb 54f
1:00pm 6 9 mph 1021.7mb 54f
12:50pm 8 9 mph 1021.7mb 55f
12:40pm 7 8 mph 1021.7mb 54f
12:30pm 6 8 mph 1022mb 54f
12:20pm 7 8 mph 1022mb 54f
12:10pm 6 8 mph 1022mb 55f
12:00pm 6 7 mph 1022mb 55f
11:50am 5 7 mph 1022mb 55f
11:40am 6 7 mph 1022mb 55f
11:30am 7
mph
1022mb 55f
11:20am 7 8 mph 1022mb 54f
11:10am 7
mph
1022mb 55f
11:00am 5 6 mph 1022.4mb 56f
10:50am 5
mph
1022.4mb 57f
10:40am 3 7 mph 1022.4mb 56f
10:30am 3 6 mph 1022.4mb 56f
10:20am 5 6 mph 1022.7mb 55f
10:10am 3 5 mph 1022.7mb 55f
10:00am  -  mph 1022.7mb 55f
9:50am  -  mph 1022.7mb 55f
9:40am  -  mph 1022.7mb 55f
9:30am  -  mph 1023mb 54f
9:20am  -  mph 1023mb 53f
9:10am  -  mph 1023mb 52f
9:00am  -  mph 1023mb 51f
8:50am  -  mph 1023mb 52f
8:40am  -  mph 1023mb 53f
8:30am  -  3 mph 1023mb 52f
8:20am  -  6 mph 1023mb 51f
8:10am 2 6 mph 1023mb 50f
8:00am 3 6 mph 1022.7mb 49f
7:50am 3 6 mph 1023mb 48f
7:40am 2 5 mph 1022.7mb 47f
7:30am 2 6 mph 1022.7mb 45f
7:20am 2 5 mph 1022.7mb 42f
7:10am 3 7 mph 1022.7mb 41f
7:00am 3 5 mph 1022.7mb 39f
6:50am 3 7 mph 1022.7mb 38f
6:40am 3 6 mph 1022.7mb 37f
6:30am 3 7 mph 1022.7mb 36f
6:20am 5 7 mph 1022.4mb 35f
6:10am 6 8 mph 1022.7mb 35f
6:00am 5 7 mph 1022.7mb 34f
5:50am 5 6 mph 1022.4mb 33f
5:40am 5 7 mph 1022.4mb 33f
5:30am 5 6 mph 1022.4mb 33f
5:20am 5 7 mph 1022.4mb 33f
5:10am 5 8 mph 1022.4mb 33f
5:00am 5 7 mph 1022.4mb 33f
4:50am 6 8 mph 1022mb 33f
4:40am 5 9 mph 1022mb 34f
4:30am 6 8 mph 1022.4mb 34f
4:20am 5 8 mph 1022.4mb 34f
4:10am 3 7 mph 1022.4mb 33f
4:00am 2 6 mph 1022.4mb 35f
3:50am 2 5 mph 1022.4mb 34f
3:40am 2 3 mph 1022.7mb 35f
3:30am 2 5 mph 1022.7mb 35f
3:20am 3 6 mph 1022.7mb 35f
3:10am 3 6 mph 1022.7mb 35f
3:00am 5 7 mph 1022.7mb 35f
2:50am 6 8 mph 1022.7mb 35f
2:40am 5 8 mph 1023mb 35f
2:30am 3 7 mph 1023mb 35f
2:20am 3 6 mph 1023mb 35f
2:10am 3 6 mph 1023mb 35f
2:00am 5 9 mph 1023mb 35f
1:50am 5 7 mph 1023mb 36f
1:40am 6 7 mph 1023mb 36f
1:30am 5 6 mph 1023mb 36f
1:20am 5
mph
1023mb 36f
1:10am 5 6 mph 1023mb 36f
1:00am 5 7 mph 1023mb 37f
12:50am 5 7 mph 1023mb 37f
12:40am 6 9 mph 1023mb 37f
12:30am 6 7 mph 1023.4mb 37f
12:20am 6 7 mph 1023.4mb 37f
12:10am 6 8 mph 1023.4mb 38f
12:00am 5 8 mph 1023.4mb 38f
Tue 05/19 11:50pm 6 9 mph 1023.4mb 38f
11:40pm 6 8 mph 1023.7mb 38f
11:30pm 6 8 mph 1023.7mb 39f
11:20pm 6 8 mph 1023.7mb 39f
11:10pm 6 7 mph 1023.7mb 39f
11:00pm 6 8 mph 1023.7mb 39f
10:50pm 6 8 mph 1023.7mb 39f
10:40pm 5 6 mph 1023.7mb 40f
10:30pm 5 6 mph 1023.7mb 40f
10:20pm 5 7 mph 1023.7mb 40f
10:10pm 3 6 mph 1023.7mb 40f
10:00pm 3 7 mph 1023.7mb 40f
9:50pm 3 6 mph 1023.7mb 40f
9:40pm 3 5 mph 1023.7mb 41f
9:30pm 3 5 mph 1023.7mb 41f
9:20pm  -  5 mph 1023.7mb 42f
9:10pm 3 5 mph 1023.7mb 43f
9:00pm  -  mph 1023.7mb 43f
8:50pm  -  mph 1023.4mb 44f
8:40pm  -  mph 1023.7mb 45f
8:30pm  -  mph 1023.4mb 45f
8:20pm  -  mph 1023.7mb 47f
8:10pm  -  mph 1023.7mb 47f
8:00pm  -  mph 1023.7mb 50f
7:50pm  -  mph 1023.4mb 56f
7:40pm  -  mph 1023.4mb 56f
7:30pm  -  mph 1023.7mb 56f
7:20pm  -  mph 1023.7mb 54f
7:10pm  -  mph 1023.7mb 53f
7:00pm  -  mph 1023.7mb 54f
6:50pm  -  mph 1023.7mb 56f
6:40pm  -  mph 1023.7mb 55f
6:30pm  -  mph 1023.4mb 54f
6:20pm  -  mph 1023.4mb 54f
6:10pm  -  mph 1023.4mb 54f
6:00pm  -  2 mph 1023.7mb 53f
5:50pm 2 3 mph 1023.4mb 53f
5:40pm 2 3 mph 1023.7mb 53f
5:30pm 2 3 mph 1023.7mb 53f
5:20pm 2 3 mph 1024mb 52f
5:10pm 3 5 mph 1024mb 51f
5:00pm 3 5 mph 1024mb 51f
4:50pm 3 5 mph 1024mb 51f
4:40pm 5 6 mph 1024.4mb 50f
4:30pm 5
mph
1024.4mb 50f
4:20pm 3 5 mph 1024.4mb 50f
4:10pm  -  mph 1024.7mb 49f
4:00pm  -  mph 1024.7mb 48f
3:50pm  -  mph 1024.7mb 48f
3:40pm  -  mph 1024.7mb 48f
3:30pm  -  mph 1025.1mb 47f
3:20pm  -  mph 1025.4mb 48f
3:10pm  -  mph 1025.4mb 47f
3:00pm  -  3 mph 1025.7mb 46f
2:50pm 2 5 mph 1026.1mb 44f
2:40pm 3 5 mph 1026.1mb 44f
2:30pm 3 5 mph 1025.7mb 44f
2:20pm 3 9 mph 1025.7mb 44f
2:10pm 3 7 mph 1026.1mb 44f
2:00pm 3 6 mph 1026.4mb 43f
1:50pm 5 7 mph 1026.4mb 44f
1:40pm 6 7 mph 1026.4mb 44f
1:30pm 6
mph
1026.8mb 44f
1:20pm 5 7 mph 1027.1mb 44f
1:10pm 5 6 mph 1027.1mb 44f
1:00pm  -  1 mph 1027.8mb 43f
12:50pm 2 7 mph 1028.1mb 42f
12:40pm 7 9 mph 1028.4mb 41f
12:30pm 3 8 mph 1029.1mb 40f
12:20pm 3 9 mph 1029.5mb 40f
12:10pm 5 6 mph 1028.4mb 40f
12:00pm 3 9 mph 1028.1mb 40f
11:50am 6 9 mph 1028.1mb 39f
11:40am 8 9 mph 1027.8mb 39f
11:30am 6 9 mph 1027.8mb 39f
11:20am 7 28 mph 1027.4mb 39f
11:10am 7 10 mph 1027.1mb 39f
11:00am 7 11 mph 1026.4mb 39f
10:50am 6 13 mph 1026.1mb 39f
10:40am 8 13 mph 1026.1mb 39f
10:30am 11 14 mph 1026.1mb 38f
10:20am 13 16 mph 1026.1mb 38f
10:10am 11 17 mph 1025.7mb 38f
10:00am 11 16 mph 1025.4mb 38f
9:50am 11 17 mph 1025.4mb 38f
9:40am 13 17 mph 1025.1mb 38f
9:30am 11 16 mph 1025.1mb 37f
9:20am 13 16 mph 1025.1mb 37f
9:10am 14 15 mph 1025.4mb 37f
9:00am 11 16 mph 1025.1mb 37f
8:50am 13 16 mph 1025.4mb 37f
8:40am 14 17 mph 1025.4mb 37f
8:30am 13 16 mph 1025.4mb 37f
8:20am 13 18 mph 1025.4mb 37f
8:10am 14 17 mph 1025.1mb 37f
8:00am 14 18 mph 1025.4mb 37f
7:50am 14 20 mph 1025.4mb 37f
7:40am 15 18 mph 1025.1mb 37f
7:30am 16 22 mph 1025.4mb 37f
7:20am 16 20 mph 1025.1mb 37f
7:10am 17 21 mph 1025.1mb 37f
7:00am 18 21 mph 1025.1mb 37f
6:50am 20 23 mph 1025.1mb 37f
6:40am 17 21 mph 1025.1mb 37f
6:30am 14 17 mph 1024.7mb 36f
6:20am 10 14 mph 1024.7mb 36f
6:10am 9 14 mph 1024.4mb 35f
6:00am 11 16 mph 1024.4mb 36f
5:50am 13 18 mph 1024.4mb 35f
5:40am 11 15 mph 1024.4mb 35f
5:30am 9 13 mph 1024mb 35f
5:20am 13 15 mph 1024mb 35f
5:10am 13 23 mph 1024mb 34f
5:00am 22 23 mph 1023.7mb 35f
4:50am 13 16 mph 1023.7mb 36f
4:40am 14 20 mph 1023.7mb 36f
4:30am 15 18 mph 1023.7mb 37f
4:20am 16 18 mph 1023.7mb 37f
4:10am 14 20 mph 1023.7mb 37f
4:00am 16 21 mph 1023.4mb 37f
3:50am 16 22 mph 1023.4mb 37f
3:40am 18 22 mph 1023.4mb 37f
3:30am 21 24 mph 1023.7mb 37f
3:20am 17 22 mph 1023.4mb 37f
3:10am 18 22 mph 1023.4mb 37f
3:00am 17 23 mph 1023.4mb 37f
2:50am 17 22 mph 1023.4mb 37f
2:40am 14 16 mph 1023mb 37f
2:30am 8 11 mph 1023mb 36f
2:20am 10 14 mph 1023mb 36f
2:10am 10 17 mph 1023mb 36f
2:00am 13 15 mph 1023mb 36f
1:50am 11 15 mph 1023mb 36f
1:40am 14 15 mph 1023mb 37f
1:30am 11 17 mph 1022.7mb 37f
1:20am 14 18 mph 1022.7mb 37f
1:10am 13 16 mph 1022.7mb 37f
1:00am 11 17 mph 1022.7mb 36f
12:50am 13 17 mph 1022.7mb 36f
12:40am 11 14 mph 1022.7mb 37f
12:30am 13 18 mph 1022.4mb 37f
12:20am 15 18 mph 1022mb 38f
12:10am 11 15 mph 1022.4mb 38f
12:00am 13 17 mph 1022mb 38f
Mon 05/18 11:50pm 15 17 mph 1022mb 38f
11:40pm 14 20 mph 1022mb 39f
11:30pm 17 20 mph 1022mb 39f
11:20pm 18 21 mph 1022mb 39f
11:10pm 17 21 mph 1022mb 40f
11:00pm 17 21 mph 1022mb 40f
10:50pm 20 22 mph 1021.7mb 40f
10:40pm 18 21 mph 1022mb 40f
10:30pm 18 20 mph 1021.7mb 40f
10:20pm 16 21 mph 1021.7mb 40f
10:10pm 15 18 mph 1021.7mb 40f
10:00pm 15 21 mph 1021.7mb 41f
9:50pm 17 20 mph 1021.3mb 41f
9:40pm 17 20 mph 1021mb 41f
9:30pm 14 17 mph 1021mb 41f
9:20pm 14 20 mph 1021mb 41f
9:10pm 17 20 mph 1021mb 41f
9:00pm 13 17 mph 1020.7mb 41f
8:50pm 15 20 mph 1020.7mb 41f
8:40pm 14 17 mph 1020.3mb 42f
8:30pm 15 18 mph 1020.3mb 42f
8:20pm 14 16 mph 1020mb 42f
8:10pm 14 17 mph 1019.6mb 42f
8:00pm 8 11 mph 1019.6mb 42f
7:50pm 10 11 mph 1019.6mb 42f
7:40pm 8 11 mph 1019.3mb 42f
7:30pm 10 13 mph 1019.3mb 42f
7:20pm 13 17 mph 1019mb 43f
7:10pm 15 18 mph 1019mb 43f
7:00pm 15 20 mph 1018.6mb 43f
6:50pm 14 16 mph 1018.6mb 43f
6:40pm 11 15 mph 1018.3mb 43f
6:30pm 13 17 mph 1017.9mb 43f
6:20pm 15 20 mph 1017.9mb 43f
6:10pm 14 18 mph 1017.9mb 43f
6:00pm 15 20 mph 1017.6mb 44f
5:50pm 14 17 mph 1017.3mb 44f
5:40pm 14 17 mph 1016.9mb 43f
5:30pm 13 18 mph 1016.9mb 44f
5:20pm 14 17 mph 1016.6mb 44f
5:10pm 11 14 mph 1016.3mb 45f
5:00pm 14 18 mph 1015.9mb 45f
4:50pm 14 17 mph 1015.9mb 45f
4:40pm 14 16 mph 1015.6mb 45f
4:30pm 10 18 mph 1015.2mb 46f
4:20pm 18 25 mph 1015.2mb 46f
4:10pm 18 28 mph 1014.9mb 45f
4:00pm 22 24 mph 1014.6mb 47f
3:50pm 13 21 mph 1014.2mb 48f
3:40pm 11 20 mph 1013.9mb 49f
3:30pm 10 18 mph 1013.9mb 49f
3:20pm 11 22 mph 1013.5mb 50f
3:10pm 11 24 mph 1013.2mb 51f
3:00pm 13 20 mph 1013.2mb 51f
2:50pm 8 15 mph 1012.9mb 51f
2:40pm 9 21 mph 1012.9mb 50f
2:30pm 10 16 mph 1012.9mb 50f
2:20pm 9 22 mph 1012.5mb 50f
2:10pm 13 23 mph 1012.5mb 50f
2:00pm 15 22 mph 1012.2mb 49f
1:50pm 7 29 mph 1012.2mb 49f
1:40pm 10 21 mph 1012.2mb 49f
1:30pm 11 20 mph 1011.9mb 49f
1:20pm 7 18 mph 1011.9mb 49f
1:10pm 13 18 mph 1011.5mb 48f
1:00pm 6 16 mph 1011.5mb 48f
12:50pm 10 18 mph 1011.5mb 47f
12:40pm 17 23 mph 1011.5mb 47f
12:30pm 15 22 mph 1011.5mb 47f
12:20pm 11 22 mph 1011.2mb 48f
12:10pm 15 22 mph 1011.2mb 49f
12:00pm 8 18 mph 1010.8mb 49f
11:50am 13 25 mph 1010.8mb 48f
11:40am 17 30 mph 1010.8mb 48f
11:37am 14 30 mph 1010.5mb 48f
11:30am 14 24 mph 1010.5mb 48f
11:20am 17 26 mph 1010.5mb 49f
11:10am 15 22 mph 1010.2mb 49f
11:00am 13 21 mph 1010.2mb 49f
10:50am 10 24 mph 1010.2mb 48f
10:40am 15 25 mph 1009.8mb 47f
10:30am 13 20 mph 1009.8mb 47f
10:20am 10 17 mph 1009.8mb 47f
10:10am 10 20 mph 1009.8mb 46f
10:00am 14 26 mph 1009.8mb 47f
9:50am 15 23 mph 1009.5mb 47f
9:40am 17 26 mph 1009.1mb 47f
9:30am 13 24 mph 1009.1mb 48f